Terminal Aerodrome Forecast
Issued by NWS

Home | Current Version | Previous Version | Text Only | Print | Product List | Glossary On
Versions: 1 2 3 4 5 6 7 8 9 10 11 12 13 14 15 16 17
517
FTUS46 KSTO 161125
TAFRBL
TAF
KRBL 161125Z 1612/1712 VRB03KT 3SM BR BCFG SCT002
      TEMPO 1612/1616 1SM BR BKN001
     FM161800 35006KT P6SM SCT250=

USA.gov is the U.S. government's official web portal to all federal, state and local government web resources and services.